sensor_id;sensor_type;location;lat;lon;timestamp;temperature;humidity
66086;DHT22;52868;49.758;9.586;2023-02-15T00:01:25;5.10;76.50
66086;DHT22;52868;49.758;9.586;2023-02-15T00:03:51;5.10;76.40
66086;DHT22;52868;49.758;9.586;2023-02-15T00:06:17;5.10;76.30
66086;DHT22;52868;49.758;9.586;2023-02-15T00:08:43;5.10;76.30
66086;DHT22;52868;49.758;9.586;2023-02-15T00:11:10;5.10;76.20
66086;DHT22;52868;49.758;9.586;2023-02-15T00:13:37;5.10;76.20
66086;DHT22;52868;49.758;9.586;2023-02-15T00:16:06;5.10;76.20
66086;DHT22;52868;49.758;9.586;2023-02-15T00:18:32;5.10;76.30
66086;DHT22;52868;49.758;9.586;2023-02-15T00:21:02;5.10;76.20
66086;DHT22;52868;49.758;9.586;2023-02-15T00:23:28;5.00;76.30
66086;DHT22;52868;49.758;9.586;2023-02-15T00:26:04;5.10;76.40
66086;DHT22;52868;49.758;9.586;2023-02-15T00:28:30;4.90;76.50
66086;DHT22;52868;49.758;9.586;2023-02-15T00:31:05;4.90;76.80
66086;DHT22;52868;49.758;9.586;2023-02-15T00:33:31;4.90;76.40
66086;DHT22;52868;49.758;9.586;2023-02-15T00:35:58;4.90;76.70
66086;DHT22;52868;49.758;9.586;2023-02-15T00:38:24;4.80;76.90
66086;DHT22;52868;49.758;9.586;2023-02-15T00:40:57;4.80;77.00
66086;DHT22;52868;49.758;9.586;2023-02-15T00:43:24;4.90;76.80
66086;DHT22;52868;49.758;9.586;2023-02-15T00:45:50;4.90;76.80
66086;DHT22;52868;49.758;9.586;2023-02-15T00:48:16;4.90;76.80
66086;DHT22;52868;49.758;9.586;2023-02-15T00:50:45;5.10;76.50
66086;DHT22;52868;49.758;9.586;2023-02-15T00:53:10;5.00;76.40
66086;DHT22;52868;49.758;9.586;2023-02-15T00:55:36;5.00;76.40
66086;DHT22;52868;49.758;9.586;2023-02-15T00:58:02;5.00;76.40
66086;DHT22;52868;49.758;9.586;2023-02-15T01:00:29;5.00;76.40
66086;DHT22;52868;49.758;9.586;2023-02-15T01:02:54;5.00;76.10
66086;DHT22;52868;49.758;9.586;2023-02-15T01:05:20;4.90;76.40
66086;DHT22;52868;49.758;9.586;2023-02-15T01:07:45;5.00;76.30
66086;DHT22;52868;49.758;9.586;2023-02-15T01:10:11;5.00;76.40
66086;DHT22;52868;49.758;9.586;2023-02-15T01:12:36;4.90;76.60
66086;DHT22;52868;49.758;9.586;2023-02-15T01:15:02;5.00;76.70
66086;DHT22;52868;49.758;9.586;2023-02-15T01:17:28;5.00;76.60
66086;DHT22;52868;49.758;9.586;2023-02-15T01:19:54;5.00;76.40
66086;DHT22;52868;49.758;9.586;2023-02-15T01:22:19;5.00;76.30
66086;DHT22;52868;49.758;9.586;2023-02-15T01:24:45;5.10;76.30
66086;DHT22;52868;49.758;9.586;2023-02-15T01:27:11;5.10;76.30
66086;DHT22;52868;49.758;9.586;2023-02-15T01:29:36;5.10;76.10
66086;DHT22;52868;49.758;9.586;2023-02-15T01:32:02;5.10;76.10
66086;DHT22;52868;49.758;9.586;2023-02-15T01:34:29;5.10;76.00
66086;DHT22;52868;49.758;9.586;2023-02-15T01:36:54;5.10;76.10
66086;DHT22;52868;49.758;9.586;2023-02-15T01:39:20;5.10;76.20
66086;DHT22;52868;49.758;9.586;2023-02-15T01:41:45;5.00;76.30
66086;DHT22;52868;49.758;9.586;2023-02-15T01:47:10;5.00;76.50
66086;DHT22;52868;49.758;9.586;2023-02-15T01:49:38;5.00;76.40
66086;DHT22;52868;49.758;9.586;2023-02-15T01:52:06;4.90;76.50
66086;DHT22;52868;49.758;9.586;2023-02-15T01:54:33;4.90;76.60
66086;DHT22;52868;49.758;9.586;2023-02-15T01:57:04;4.90;76.70
66086;DHT22;52868;49.758;9.586;2023-02-15T01:59:32;4.90;76.60
66086;DHT22;52868;49.758;9.586;2023-02-15T02:01:59;4.80;76.80
66086;DHT22;52868;49.758;9.586;2023-02-15T02:04:33;4.80;76.80
66086;DHT22;52868;49.758;9.586;2023-02-15T02:07:00;4.70;76.90
66086;DHT22;52868;49.758;9.586;2023-02-15T02:09:28;4.70;76.90
66086;DHT22;52868;49.758;9.586;2023-02-15T02:11:54;4.70;76.90
66086;DHT22;52868;49.758;9.586;2023-02-15T02:14:20;4.70;77.10
66086;DHT22;52868;49.758;9.586;2023-02-15T02:16:54;4.70;77.00
66086;DHT22;52868;49.758;9.586;2023-02-15T02:28:02;4.70;76.90
66086;DHT22;52868;49.758;9.586;2023-02-15T02:33:24;4.70;77.50
66086;DHT22;52868;49.758;9.586;2023-02-15T02:36:02;4.70;76.80
66086;DHT22;52868;49.758;9.586;2023-02-15T02:41:40;4.80;76.60
66086;DHT22;52868;49.758;9.586;2023-02-15T02:44:19;4.80;76.70
66086;DHT22;52868;49.758;9.586;2023-02-15T02:49:39;4.80;76.80
66086;DHT22;52868;49.758;9.586;2023-02-15T02:52:33;4.80;76.70
66086;DHT22;52868;49.758;9.586;2023-02-15T02:54:54;4.90;76.50
66086;DHT22;52868;49.758;9.586;2023-02-15T02:57:22;4.90;76.40
66086;DHT22;52868;49.758;9.586;2023-02-15T02:59:49;4.80;76.40
66086;DHT22;52868;49.758;9.586;2023-02-15T03:02:24;4.80;76.40
66086;DHT22;52868;49.758;9.586;2023-02-15T03:04:55;4.80;76.60
66086;DHT22;52868;49.758;9.586;2023-02-15T03:07:25;4.80;76.60
66086;DHT22;52868;49.758;9.586;2023-02-15T03:09:54;4.80;76.60
66086;DHT22;52868;49.758;9.586;2023-02-15T03:12:28;4.90;76.50
66086;DHT22;52868;49.758;9.586;2023-02-15T03:17:32;4.80;76.60
66086;DHT22;52868;49.758;9.586;2023-02-15T03:20:03;4.80;76.80
66086;DHT22;52868;49.758;9.586;2023-02-15T03:22:46;4.90;76.60
66086;DHT22;52868;49.758;9.586;2023-02-15T03:25:19;4.90;76.40
66086;DHT22;52868;49.758;9.586;2023-02-15T03:27:49;4.90;76.40
66086;DHT22;52868;49.758;9.586;2023-02-15T03:30:18;4.90;76.30
66086;DHT22;52868;49.758;9.586;2023-02-15T03:32:47;4.80;76.50
66086;DHT22;52868;49.758;9.586;2023-02-15T03:35:14;4.80;76.50
66086;DHT22;52868;49.758;9.586;2023-02-15T03:37:50;4.90;76.40
66086;DHT22;52868;49.758;9.586;2023-02-15T03:40:28;4.90;76.30
66086;DHT22;52868;49.758;9.586;2023-02-15T03:43:28;4.80;76.20
66086;DHT22;52868;49.758;9.586;2023-02-15T03:45:59;4.80;76.30
66086;DHT22;52868;49.758;9.586;2023-02-15T03:48:41;4.70;76.30
66086;DHT22;52868;49.758;9.586;2023-02-15T03:51:12;4.70;76.20
66086;DHT22;52868;49.758;9.586;2023-02-15T03:57:00;4.70;76.40
66086;DHT22;52868;49.758;9.586;2023-02-15T03:59:45;4.70;76.40
66086;DHT22;52868;49.758;9.586;2023-02-15T04:02:38;4.70;76.20
66086;DHT22;52868;49.758;9.586;2023-02-15T04:05:05;4.80;76.10
66086;DHT22;52868;49.758;9.586;2023-02-15T04:07:31;4.70;75.80
66086;DHT22;52868;49.758;9.586;2023-02-15T04:09:57;4.70;75.70
66086;DHT22;52868;49.758;9.586;2023-02-15T04:12:41;4.70;76.20
66086;DHT22;52868;49.758;9.586;2023-02-15T04:15:12;4.70;75.70
66086;DHT22;52868;49.758;9.586;2023-02-15T04:17:56;4.70;76.00
66086;DHT22;52868;49.758;9.586;2023-02-15T04:20:21;4.70;75.70
66086;DHT22;52868;49.758;9.586;2023-02-15T04:23:06;4.70;75.90
66086;DHT22;52868;49.758;9.586;2023-02-15T04:25:51;4.70;75.60
66086;DHT22;52868;49.758;9.586;2023-02-15T04:28:16;4.70;75.30
66086;DHT22;52868;49.758;9.586;2023-02-15T04:30:42;4.70;75.60
66086;DHT22;52868;49.758;9.586;2023-02-15T04:33:08;4.70;75.30
66086;DHT22;52868;49.758;9.586;2023-02-15T04:35:33;4.70;75.30
66086;DHT22;52868;49.758;9.586;2023-02-15T04:37:59;4.70;75.10
66086;DHT22;52868;49.758;9.586;2023-02-15T04:40:25;4.50;75.40
66086;DHT22;52868;49.758;9.586;2023-02-15T04:42:51;4.40;75.70
66086;DHT22;52868;49.758;9.586;2023-02-15T04:45:17;4.50;75.60
66086;DHT22;52868;49.758;9.586;2023-02-15T04:47:43;4.60;75.70
66086;DHT22;52868;49.758;9.586;2023-02-15T04:50:09;4.60;75.40
66086;DHT22;52868;49.758;9.586;2023-02-15T04:52:35;4.50;75.50
66086;DHT22;52868;49.758;9.586;2023-02-15T04:55:00;4.60;75.40
66086;DHT22;52868;49.758;9.586;2023-02-15T04:57:26;4.70;75.20
66086;DHT22;52868;49.758;9.586;2023-02-15T04:59:52;4.50;74.90
66086;DHT22;52868;49.758;9.586;2023-02-15T05:02:17;4.40;75.10
66086;DHT22;52868;49.758;9.586;2023-02-15T05:04:43;4.40;75.20
66086;DHT22;52868;49.758;9.586;2023-02-15T05:07:08;4.30;75.20
66086;DHT22;52868;49.758;9.586;2023-02-15T05:09:34;4.40;75.50
66086;DHT22;52868;49.758;9.586;2023-02-15T05:12:00;4.50;75.30
66086;DHT22;52868;49.758;9.586;2023-02-15T05:14:25;4.40;74.90
66086;DHT22;52868;49.758;9.586;2023-02-15T05:16:51;4.40;75.10
66086;DHT22;52868;49.758;9.586;2023-02-15T05:19:21;4.30;75.00
66086;DHT22;52868;49.758;9.586;2023-02-15T05:21:49;4.30;75.20
66086;DHT22;52868;49.758;9.586;2023-02-15T05:24:15;4.20;75.10
66086;DHT22;52868;49.758;9.586;2023-02-15T05:26:59;4.20;75.30
66086;DHT22;52868;49.758;9.586;2023-02-15T05:29:44;4.20;75.30
66086;DHT22;52868;49.758;9.586;2023-02-15T05:32:12;4.30;75.20
66086;DHT22;52868;49.758;9.586;2023-02-15T05:34:38;4.30;75.20
66086;DHT22;52868;49.758;9.586;2023-02-15T05:37:04;4.30;74.90
66086;DHT22;52868;49.758;9.586;2023-02-15T05:39:29;4.20;74.80
66086;DHT22;52868;49.758;9.586;2023-02-15T05:41:58;4.20;75.20
66086;DHT22;52868;49.758;9.586;2023-02-15T05:44:25;4.20;75.00
66086;DHT22;52868;49.758;9.586;2023-02-15T05:46:50;4.20;75.20
66086;DHT22;52868;49.758;9.586;2023-02-15T05:49:16;4.20;75.20
66086;DHT22;52868;49.758;9.586;2023-02-15T05:51:42;4.20;74.80
66086;DHT22;52868;49.758;9.586;2023-02-15T05:54:07;4.30;75.10
66086;DHT22;52868;49.758;9.586;2023-02-15T05:56:33;4.30;74.80
66086;DHT22;52868;49.758;9.586;2023-02-15T05:58:58;4.20;74.40
66086;DHT22;52868;49.758;9.586;2023-02-15T06:01:24;4.10;74.70
66086;DHT22;52868;49.758;9.586;2023-02-15T06:03:50;4.20;75.10
66086;DHT22;52868;49.758;9.586;2023-02-15T06:06:16;4.20;75.10
66086;DHT22;52868;49.758;9.586;2023-02-15T06:08:42;4.10;74.90
66086;DHT22;52868;49.758;9.586;2023-02-15T06:11:07;4.10;74.90
66086;DHT22;52868;49.758;9.586;2023-02-15T06:13:34;4.20;75.00
66086;DHT22;52868;49.758;9.586;2023-02-15T06:15:59;4.20;74.80
66086;DHT22;52868;49.758;9.586;2023-02-15T06:18:25;4.20;74.60
66086;DHT22;52868;49.758;9.586;2023-02-15T06:20:51;4.20;74.20
66086;DHT22;52868;49.758;9.586;2023-02-15T06:23:16;4.20;74.30
66086;DHT22;52868;49.758;9.586;2023-02-15T06:25:44;4.20;74.50
66086;DHT22;52868;49.758;9.586;2023-02-15T06:28:10;4.30;74.60
66086;DHT22;52868;49.758;9.586;2023-02-15T06:30:36;4.20;74.50
66086;DHT22;52868;49.758;9.586;2023-02-15T06:33:01;4.20;74.30
66086;DHT22;52868;49.758;9.586;2023-02-15T06:35:27;4.00;73.70
66086;DHT22;52868;49.758;9.586;2023-02-15T06:37:53;3.90;74.50
66086;DHT22;52868;49.758;9.586;2023-02-15T06:40:19;3.80;75.00
66086;DHT22;52868;49.758;9.586;2023-02-15T06:42:45;3.80;75.20
66086;DHT22;52868;49.758;9.586;2023-02-15T06:45:11;3.70;74.80
66086;DHT22;52868;49.758;9.586;2023-02-15T06:47:37;3.70;75.20
66086;DHT22;52868;49.758;9.586;2023-02-15T06:50:04;3.80;75.30
66086;DHT22;52868;49.758;9.586;2023-02-15T06:52:30;3.80;75.40
66086;DHT22;52868;49.758;9.586;2023-02-15T06:54:56;3.80;75.10
66086;DHT22;52868;49.758;9.586;2023-02-15T06:57:21;3.70;75.20
66086;DHT22;52868;49.758;9.586;2023-02-15T06:59:47;3.70;75.90
66086;DHT22;52868;49.758;9.586;2023-02-15T07:02:13;3.90;75.70
66086;DHT22;52868;49.758;9.586;2023-02-15T07:04:38;4.00;75.50
66086;DHT22;52868;49.758;9.586;2023-02-15T07:07:08;4.00;75.10
66086;DHT22;52868;49.758;9.586;2023-02-15T07:09:34;3.90;75.00
66086;DHT22;52868;49.758;9.586;2023-02-15T07:12:00;3.90;75.20
66086;DHT22;52868;49.758;9.586;2023-02-15T07:14:44;3.80;75.30
66086;DHT22;52868;49.758;9.586;2023-02-15T07:17:09;3.90;75.50
66086;DHT22;52868;49.758;9.586;2023-02-15T07:19:36;3.80;75.30
66086;DHT22;52868;49.758;9.586;2023-02-15T07:22:01;3.90;75.70
66086;DHT22;52868;49.758;9.586;2023-02-15T07:24:29;4.00;75.40
66086;DHT22;52868;49.758;9.586;2023-02-15T07:26:54;4.00;75.00
66086;DHT22;52868;49.758;9.586;2023-02-15T07:29:20;4.00;75.30
66086;DHT22;52868;49.758;9.586;2023-02-15T07:31:45;3.90;75.50
66086;DHT22;52868;49.758;9.586;2023-02-15T07:34:11;3.80;75.60
66086;DHT22;52868;49.758;9.586;2023-02-15T07:36:37;3.80;75.80
66086;DHT22;52868;49.758;9.586;2023-02-15T07:39:03;3.90;75.70
66086;DHT22;52868;49.758;9.586;2023-02-15T07:41:28;4.00;75.20
66086;DHT22;52868;49.758;9.586;2023-02-15T07:43:54;4.00;75.30
66086;DHT22;52868;49.758;9.586;2023-02-15T07:46:20;3.90;75.20
66086;DHT22;52868;49.758;9.586;2023-02-15T07:48:46;3.80;75.30
66086;DHT22;52868;49.758;9.586;2023-02-15T07:51:12;3.80;75.70
66086;DHT22;52868;49.758;9.586;2023-02-15T07:53:40;4.00;75.90
66086;DHT22;52868;49.758;9.586;2023-02-15T07:56:10;4.10;75.30
66086;DHT22;52868;49.758;9.586;2023-02-15T07:58:36;3.90;75.30
66086;DHT22;52868;49.758;9.586;2023-02-15T08:03:46;3.90;75.20
66086;DHT22;52868;49.758;9.586;2023-02-15T08:06:12;4.00;75.10
66086;DHT22;52868;49.758;9.586;2023-02-15T08:08:39;4.00;74.80
66086;DHT22;52868;49.758;9.586;2023-02-15T08:11:17;4.00;74.80
66086;DHT22;52868;49.758;9.586;2023-02-15T08:14:20;4.00;74.90
66086;DHT22;52868;49.758;9.586;2023-02-15T08:16:48;3.90;74.90
66086;DHT22;52868;49.758;9.586;2023-02-15T08:19:16;3.90;74.70
66086;DHT22;52868;49.758;9.586;2023-02-15T08:21:47;3.90;74.60
66086;DHT22;52868;49.758;9.586;2023-02-15T08:24:15;3.80;74.90
66086;DHT22;52868;49.758;9.586;2023-02-15T08:26:41;3.80;74.70
66086;DHT22;52868;49.758;9.586;2023-02-15T08:29:07;3.80;74.90
66086;DHT22;52868;49.758;9.586;2023-02-15T08:31:34;3.90;74.50
66086;DHT22;52868;49.758;9.586;2023-02-15T08:34:00;3.80;74.70
66086;DHT22;52868;49.758;9.586;2023-02-15T08:36:28;3.80;74.70
66086;DHT22;52868;49.758;9.586;2023-02-15T08:38:57;3.90;74.40
66086;DHT22;52868;49.758;9.586;2023-02-15T08:41:25;3.90;74.70
66086;DHT22;52868;49.758;9.586;2023-02-15T08:43:53;4.00;74.50
66086;DHT22;52868;49.758;9.586;2023-02-15T08:46:20;3.80;74.20
66086;DHT22;52868;49.758;9.586;2023-02-15T08:48:46;3.70;74.30
66086;DHT22;52868;49.758;9.586;2023-02-15T08:51:20;3.80;74.50
66086;DHT22;52868;49.758;9.586;2023-02-15T08:53:49;4.00;74.80
66086;DHT22;52868;49.758;9.586;2023-02-15T08:56:15;3.90;74.30
66086;DHT22;52868;49.758;9.586;2023-02-15T08:58:41;3.80;74.50
66086;DHT22;52868;49.758;9.586;2023-02-15T09:01:12;3.90;74.60
66086;DHT22;52868;49.758;9.586;2023-02-15T09:03:38;4.00;74.30
66086;DHT22;52868;49.758;9.586;2023-02-15T09:06:05;3.90;74.00
66086;DHT22;52868;49.758;9.586;2023-02-15T09:08:31;3.90;74.10
66086;DHT22;52868;49.758;9.586;2023-02-15T09:13:35;3.80;74.40
66086;DHT22;52868;49.758;9.586;2023-02-15T09:16:03;3.70;74.20
66086;DHT22;52868;49.758;9.586;2023-02-15T09:18:31;3.80;74.40
66086;DHT22;52868;49.758;9.586;2023-02-15T09:21:04;3.80;74.10
66086;DHT22;52868;49.758;9.586;2023-02-15T09:23:30;3.90;74.20
66086;DHT22;52868;49.758;9.586;2023-02-15T09:25:56;4.00;74.30
66086;DHT22;52868;49.758;9.586;2023-02-15T09:28:21;3.80;74.00
66086;DHT22;52868;49.758;9.586;2023-02-15T09:30:47;3.90;74.20
66086;DHT22;52868;49.758;9.586;2023-02-15T09:33:12;3.90;74.10
66086;DHT22;52868;49.758;9.586;2023-02-15T09:35:38;4.10;74.20
66086;DHT22;52868;49.758;9.586;2023-02-15T09:38:04;3.90;73.90
66086;DHT22;52868;49.758;9.586;2023-02-15T09:40:33;3.90;74.20
66086;DHT22;52868;49.758;9.586;2023-02-15T09:43:14;4.00;74.30
66086;DHT22;52868;49.758;9.586;2023-02-15T09:46:12;4.10;74.40
66086;DHT22;52868;49.758;9.586;2023-02-15T09:48:47;4.00;74.30
66086;DHT22;52868;49.758;9.586;2023-02-15T09:54:26;3.80;74.30
66086;DHT22;52868;49.758;9.586;2023-02-15T09:57:00;3.90;74.70
66086;DHT22;52868;49.758;9.586;2023-02-15T10:05:07;3.90;74.70
66086;DHT22;52868;49.758;9.586;2023-02-15T10:10:37;3.90;74.10
66086;DHT22;52868;49.758;9.586;2023-02-15T10:13:11;4.00;74.20
66086;DHT22;52868;49.758;9.586;2023-02-15T10:26:48;3.80;74.60
66086;DHT22;52868;49.758;9.586;2023-02-15T10:29:36;3.80;74.70
66086;DHT22;52868;49.758;9.586;2023-02-15T10:37:40;3.70;75.10
66086;DHT22;52868;49.758;9.586;2023-02-15T10:40:25;3.80;75.20
66086;DHT22;52868;49.758;9.586;2023-02-15T10:50:46;4.00;74.80
66086;DHT22;52868;49.758;9.586;2023-02-15T11:07:40;4.00;75.00
66086;DHT22;52868;49.758;9.586;2023-02-15T11:10:29;4.10;74.90
66086;DHT22;52868;49.758;9.586;2023-02-15T11:12:57;4.20;74.50
66086;DHT22;52868;49.758;9.586;2023-02-15T11:15:29;4.10;74.70
66086;DHT22;52868;49.758;9.586;2023-02-15T11:18:00;4.20;74.60
66086;DHT22;52868;49.758;9.586;2023-02-15T11:20:33;4.10;74.40
66086;DHT22;52868;49.758;9.586;2023-02-15T11:23:01;4.20;74.80
66086;DHT22;52868;49.758;9.586;2023-02-15T11:25:32;4.20;74.50
66086;DHT22;52868;49.758;9.586;2023-02-15T11:28:03;4.10;74.30
66086;DHT22;52868;49.758;9.586;2023-02-15T11:30:44;4.20;74.70
66086;DHT22;52868;49.758;9.586;2023-02-15T11:33:27;4.20;74.50
66086;DHT22;52868;49.758;9.586;2023-02-15T11:36:11;4.30;74.50
66086;DHT22;52868;49.758;9.586;2023-02-15T11:38:39;4.20;74.50
66086;DHT22;52868;49.758;9.586;2023-02-15T11:41:13;4.30;74.50
66086;DHT22;52868;49.758;9.586;2023-02-15T11:43:44;4.40;74.40
66086;DHT22;52868;49.758;9.586;2023-02-15T11:46:13;4.30;74.20
66086;DHT22;52868;49.758;9.586;2023-02-15T11:48:40;4.20;74.30
66086;DHT22;52868;49.758;9.586;2023-02-15T11:51:12;4.20;74.50
66086;DHT22;52868;49.758;9.586;2023-02-15T11:53:39;4.20;74.70
66086;DHT22;52868;49.758;9.586;2023-02-15T11:56:10;4.20;74.60
66086;DHT22;52868;49.758;9.586;2023-02-15T11:58:44;4.20;74.60
66086;DHT22;52868;49.758;9.586;2023-02-15T12:01:33;4.20;74.60
66086;DHT22;52868;49.758;9.586;2023-02-15T12:04:26;4.20;74.60
66086;DHT22;52868;49.758;9.586;2023-02-15T12:07:04;4.20;75.00
66086;DHT22;52868;49.758;9.586;2023-02-15T12:09:36;4.20;74.90
66086;DHT22;52868;49.758;9.586;2023-02-15T12:12:26;4.30;74.80
66086;DHT22;52868;49.758;9.586;2023-02-15T12:14:55;4.30;74.60
66086;DHT22;52868;49.758;9.586;2023-02-15T12:17:32;4.30;74.50
66086;DHT22;52868;49.758;9.586;2023-02-15T12:20:31;4.40;74.60
66086;DHT22;52868;49.758;9.586;2023-02-15T12:23:08;4.40;74.50
66086;DHT22;52868;49.758;9.586;2023-02-15T12:28:38;4.40;74.70
66086;DHT22;52868;49.758;9.586;2023-02-15T12:31:24;4.30;74.60
66086;DHT22;52868;49.758;9.586;2023-02-15T12:33:54;4.40;74.60
66086;DHT22;52868;49.758;9.586;2023-02-15T12:36:32;4.50;74.60
66086;DHT22;52868;49.758;9.586;2023-02-15T12:47:01;4.50;74.30
66086;DHT22;52868;49.758;9.586;2023-02-15T12:49:31;4.50;74.50
66086;DHT22;52868;49.758;9.586;2023-02-15T12:52:04;4.50;74.30
66086;DHT22;52868;49.758;9.586;2023-02-15T12:54:38;4.50;74.40
66086;DHT22;52868;49.758;9.586;2023-02-15T12:57:30;4.60;74.30
66086;DHT22;52868;49.758;9.586;2023-02-15T13:02:41;4.40;74.40
66086;DHT22;52868;49.758;9.586;2023-02-15T13:05:42;4.40;74.50
66086;DHT22;52868;49.758;9.586;2023-02-15T13:10:36;4.60;74.50
66086;DHT22;52868;49.758;9.586;2023-02-15T13:13:10;4.60;74.40
66086;DHT22;52868;49.758;9.586;2023-02-15T13:15:38;4.60;74.50
66086;DHT22;52868;49.758;9.586;2023-02-15T13:18:12;4.60;74.50
66086;DHT22;52868;49.758;9.586;2023-02-15T13:20:41;4.60;74.50
66086;DHT22;52868;49.758;9.586;2023-02-15T13:23:34;4.60;74.70
66086;DHT22;52868;49.758;9.586;2023-02-15T13:26:03;4.60;74.60
66086;DHT22;52868;49.758;9.586;2023-02-15T13:28:42;4.60;74.50
66086;DHT22;52868;49.758;9.586;2023-02-15T13:31:22;4.60;74.60
66086;DHT22;52868;49.758;9.586;2023-02-15T13:33:53;4.50;74.50
66086;DHT22;52868;49.758;9.586;2023-02-15T13:56:28;4.70;74.70
66086;DHT22;52868;49.758;9.586;2023-02-15T14:01:49;4.60;74.70
66086;DHT22;52868;49.758;9.586;2023-02-15T14:09:57;4.70;74.60
66086;DHT22;52868;49.758;9.586;2023-02-15T14:20:53;4.70;74.60
66086;DHT22;52868;49.758;9.586;2023-02-15T14:29:07;4.70;74.70
66086;DHT22;52868;49.758;9.586;2023-02-15T14:31:57;4.70;74.80
66086;DHT22;52868;49.758;9.586;2023-02-15T14:34:30;4.70;74.90
66086;DHT22;52868;49.758;9.586;2023-02-15T14:36:57;4.70;75.00
66086;DHT22;52868;49.758;9.586;2023-02-15T14:39:28;4.70;75.00
66086;DHT22;52868;49.758;9.586;2023-02-15T14:42:34;4.70;75.10
66086;DHT22;52868;49.758;9.586;2023-02-15T14:50:42;4.70;75.00
66086;DHT22;52868;49.758;9.586;2023-02-15T14:56:15;4.80;74.80
66086;DHT22;52868;49.758;9.586;2023-02-15T15:01:34;4.80;74.90
66086;DHT22;52868;49.758;9.586;2023-02-15T15:04:04;4.70;74.80
66086;DHT22;52868;49.758;9.586;2023-02-15T15:06:33;4.80;74.70
66086;DHT22;52868;49.758;9.586;2023-02-15T15:11:47;4.70;74.90
66086;DHT22;52868;49.758;9.586;2023-02-15T15:17:04;4.70;75.00
66086;DHT22;52868;49.758;9.586;2023-02-15T15:22:18;4.70;75.30
66086;DHT22;52868;49.758;9.586;2023-02-15T15:32:48;4.70;75.10
66086;DHT22;52868;49.758;9.586;2023-02-15T15:44:28;4.70;75.10
66086;DHT22;52868;49.758;9.586;2023-02-15T15:47:10;4.70;75.10
66086;DHT22;52868;49.758;9.586;2023-02-15T15:49:40;4.70;75.20
66086;DHT22;52868;49.758;9.586;2023-02-15T15:52:14;4.70;75.20
66086;DHT22;52868;49.758;9.586;2023-02-15T15:54:41;4.70;75.40
66086;DHT22;52868;49.758;9.586;2023-02-15T15:59:52;4.70;75.20
66086;DHT22;52868;49.758;9.586;2023-02-15T16:02:19;4.70;75.30
66086;DHT22;52868;49.758;9.586;2023-02-15T16:04:45;4.70;75.20
66086;DHT22;52868;49.758;9.586;2023-02-15T16:10:04;4.70;75.20
66086;DHT22;52868;49.758;9.586;2023-02-15T16:12:37;4.70;75.10
66086;DHT22;52868;49.758;9.586;2023-02-15T16:15:25;4.70;75.20
66086;DHT22;52868;49.758;9.586;2023-02-15T16:17:54;4.70;75.20
66086;DHT22;52868;49.758;9.586;2023-02-15T16:20:33;4.70;75.20
66086;DHT22;52868;49.758;9.586;2023-02-15T16:28:53;4.70;75.30
66086;DHT22;52868;49.758;9.586;2023-02-15T16:31:20;4.70;75.30
66086;DHT22;52868;49.758;9.586;2023-02-15T16:33:48;4.70;75.10
66086;DHT22;52868;49.758;9.586;2023-02-15T16:36:23;4.70;75.00
66086;DHT22;52868;49.758;9.586;2023-02-15T16:41:22;4.70;75.50
66086;DHT22;52868;49.758;9.586;2023-02-15T16:43:50;4.70;75.40
66086;DHT22;52868;49.758;9.586;2023-02-15T16:46:24;4.70;75.50
66086;DHT22;52868;49.758;9.586;2023-02-15T16:48:52;4.70;75.30
66086;DHT22;52868;49.758;9.586;2023-02-15T16:51:22;4.70;75.50
66086;DHT22;52868;49.758;9.586;2023-02-15T16:53:48;4.70;75.50
66086;DHT22;52868;49.758;9.586;2023-02-15T16:56:14;4.70;75.50
66086;DHT22;52868;49.758;9.586;2023-02-15T16:58:42;4.60;75.50
66086;DHT22;52868;49.758;9.586;2023-02-15T17:01:10;4.70;75.60
66086;DHT22;52868;49.758;9.586;2023-02-15T17:03:39;4.60;75.70
66086;DHT22;52868;49.758;9.586;2023-02-15T17:06:22;4.60;75.80
66086;DHT22;52868;49.758;9.586;2023-02-15T17:08:48;4.60;75.80
66086;DHT22;52868;49.758;9.586;2023-02-15T17:16:32;4.60;75.80
66086;DHT22;52868;49.758;9.586;2023-02-15T17:19:08;4.60;75.80
66086;DHT22;52868;49.758;9.586;2023-02-15T17:21:40;4.60;75.70
66086;DHT22;52868;49.758;9.586;2023-02-15T17:24:16;4.60;75.70
66086;DHT22;52868;49.758;9.586;2023-02-15T17:26:43;4.60;75.80
66086;DHT22;52868;49.758;9.586;2023-02-15T17:29:44;4.60;75.70
66086;DHT22;52868;49.758;9.586;2023-02-15T17:32:19;4.60;75.90
66086;DHT22;52868;49.758;9.586;2023-02-15T17:34:57;4.70;75.70
66086;DHT22;52868;49.758;9.586;2023-02-15T17:37:28;4.60;75.70
66086;DHT22;52868;49.758;9.586;2023-02-15T17:39:55;4.60;75.80
66086;DHT22;52868;49.758;9.586;2023-02-15T17:42:21;4.60;75.80
66086;DHT22;52868;49.758;9.586;2023-02-15T17:44:48;4.60;75.80
66086;DHT22;52868;49.758;9.586;2023-02-15T17:47:16;4.60;75.90
66086;DHT22;52868;49.758;9.586;2023-02-15T17:49:42;4.50;76.00
66086;DHT22;52868;49.758;9.586;2023-02-15T17:52:12;4.60;75.90
66086;DHT22;52868;49.758;9.586;2023-02-15T17:54:40;4.60;75.90
66086;DHT22;52868;49.758;9.586;2023-02-15T17:57:24;4.50;76.00
66086;DHT22;52868;49.758;9.586;2023-02-15T17:59:51;4.60;76.00
66086;DHT22;52868;49.758;9.586;2023-02-15T18:02:36;4.60;76.00
66086;DHT22;52868;49.758;9.586;2023-02-15T18:05:20;4.60;76.10
66086;DHT22;52868;49.758;9.586;2023-02-15T18:08:10;4.50;76.10
66086;DHT22;52868;49.758;9.586;2023-02-15T18:10:54;4.50;76.20
66086;DHT22;52868;49.758;9.586;2023-02-15T18:13:39;4.50;76.20
66086;DHT22;52868;49.758;9.586;2023-02-15T18:16:04;4.50;76.20
66086;DHT22;52868;49.758;9.586;2023-02-15T18:18:30;4.60;76.20
66086;DHT22;52868;49.758;9.586;2023-02-15T18:20:56;4.60;76.00
66086;DHT22;52868;49.758;9.586;2023-02-15T18:23:22;4.60;76.00
66086;DHT22;52868;49.758;9.586;2023-02-15T18:25:47;4.60;76.10
66086;DHT22;52868;49.758;9.586;2023-02-15T18:28:13;4.60;76.10
66086;DHT22;52868;49.758;9.586;2023-02-15T18:30:39;4.60;76.10
66086;DHT22;52868;49.758;9.586;2023-02-15T18:35:56;4.70;75.80
66086;DHT22;52868;49.758;9.586;2023-02-15T18:38:22;4.70;75.90
66086;DHT22;52868;49.758;9.586;2023-02-15T18:40:47;4.70;75.80
66086;DHT22;52868;49.758;9.586;2023-02-15T18:43:15;4.60;76.00
66086;DHT22;52868;49.758;9.586;2023-02-15T18:45:40;4.70;75.80
66086;DHT22;52868;49.758;9.586;2023-02-15T18:48:06;4.60;76.00
66086;DHT22;52868;49.758;9.586;2023-02-15T18:50:35;4.60;75.90
66086;DHT22;52868;49.758;9.586;2023-02-15T18:53:02;4.60;75.80
66086;DHT22;52868;49.758;9.586;2023-02-15T18:55:29;4.50;76.10
66086;DHT22;52868;49.758;9.586;2023-02-15T18:57:57;4.50;76.20
66086;DHT22;52868;49.758;9.586;2023-02-15T19:00:25;4.50;76.30
66086;DHT22;52868;49.758;9.586;2023-02-15T19:02:52;4.60;76.20
66086;DHT22;52868;49.758;9.586;2023-02-15T19:05:19;4.50;76.10
66086;DHT22;52868;49.758;9.586;2023-02-15T19:07:45;4.50;76.20
66086;DHT22;52868;49.758;9.586;2023-02-15T19:10:22;4.50;76.20
66086;DHT22;52868;49.758;9.586;2023-02-15T19:12:49;4.50;76.20
66086;DHT22;52868;49.758;9.586;2023-02-15T19:15:16;4.50;76.10
66086;DHT22;52868;49.758;9.586;2023-02-15T19:17:42;4.60;75.90
66086;DHT22;52868;49.758;9.586;2023-02-15T19:22:42;4.50;75.80
66086;DHT22;52868;49.758;9.586;2023-02-15T19:25:16;4.50;75.80
66086;DHT22;52868;49.758;9.586;2023-02-15T19:27:43;4.50;76.00